Time;durP1;ratioP1;P1;durP2;ratioP2;P2;SDS_P1;SDS_P2;PMS_P1;PMS_P2;Temp;Humidity;BMP_temperature;BMP_pressure;BME280_temperature;BME280_humidity;BME280_pressure;Samples;Min_cycle;Max_cycle;Signal;HPM_P1;HPM_P2
2023/04/21 00:02:05;;;;;;;51.55;32.33;;;5.20;99.90;;;;;;5057258;28;20048;-84
2023/04/21 00:04:31;;;;;;;54.10;31.17;;;5.20;99.90;;;;;;5044131;28;20064;-84
2023/04/21 00:07:00;;;;;;;46.55;29.13;;;5.20;99.90;;;;;;5052590;28;20037;-84
2023/04/21 00:09:26;;;;;;;48.70;29.48;;;5.30;99.90;;;;;;5052362;28;20111;-85
2023/04/21 00:11:52;;;;;;;50.85;30.55;;;5.30;99.90;;;;;;5047415;28;20032;-85
2023/04/21 00:14:18;;;;;;;43.25;27.77;;;5.30;99.90;;;;;;5047763;28;20263;-85
2023/04/21 00:16:44;;;;;;;44.55;26.50;;;5.40;99.90;;;;;;5045674;28;20032;-85
2023/04/21 00:19:12;;;;;;;42.42;27.20;;;5.40;99.90;;;;;;5050147;28;20294;-84
2023/04/21 00:21:40;;;;;;;47.33;29.67;;;5.30;99.90;;;;;;5041968;28;20029;-85
2023/04/21 00:24:06;;;;;;;54.67;31.98;;;5.30;99.90;;;;;;5043986;28;20024;-84
2023/04/21 00:26:32;;;;;;;42.53;27.25;;;5.40;99.90;;;;;;5047755;28;20126;-84
2023/04/21 00:28:57;;;;;;;44.60;29.05;;;5.30;99.90;;;;;;5048123;28;20030;-84
2023/04/21 00:31:23;;;;;;;39.33;25.40;;;5.30;99.90;;;;;;5047128;28;20159;-84
2023/04/21 00:33:48;;;;;;;47.08;28.02;;;5.20;99.90;;;;;;5057841;28;20024;-84
2023/04/21 00:36:14;;;;;;;47.38;27.63;;;5.20;99.90;;;;;;5040949;28;20028;-84
2023/04/21 00:38:40;;;;;;;58.50;31.75;;;5.30;99.90;;;;;;5045828;28;20037;-84
2023/04/21 00:41:05;;;;;;;50.78;29.42;;;5.20;99.90;;;;;;5046748;28;20044;-84
2023/04/21 00:43:31;;;;;;;44.08;27.48;;;5.20;99.90;;;;;;5047157;28;20032;-84
2023/04/21 00:45:57;;;;;;;43.75;27.67;;;5.20;99.90;;;;;;5040556;28;20029;-84
2023/04/21 00:48:22;;;;;;;43.75;26.77;;;5.20;99.90;;;;;;5044383;28;20032;-86
2023/04/21 00:50:48;;;;;;;45.70;26.92;;;5.20;99.90;;;;;;5047250;28;20028;-84
2023/04/21 00:53:14;;;;;;;45.78;27.20;;;5.10;99.90;;;;;;5048217;28;20436;-84
2023/04/21 00:55:40;;;;;;;37.90;24.75;;;5.10;99.90;;;;;;5054783;28;20048;-84
2023/04/21 00:58:06;;;;;;;40.88;24.13;;;5.00;99.90;;;;;;5047103;28;20056;-84
2023/04/21 01:00:32;;;;;;;42.55;25.55;;;5.00;99.90;;;;;;5050212;28;20116;-86
2023/04/21 01:03:00;;;;;;;49.35;27.20;;;5.10;99.90;;;;;;5041560;28;20037;-84
2023/04/21 01:05:25;;;;;;;47.20;28.42;;;5.00;99.90;;;;;;5055317;28;20056;-84
2023/04/21 01:07:51;;;;;;;45.22;27.77;;;5.00;99.90;;;;;;5041994;28;20061;-84
2023/04/21 01:10:17;;;;;;;44.38;27.48;;;5.10;99.90;;;;;;5040139;28;20028;-84
2023/04/21 01:12:46;;;;;;;44.70;26.55;;;5.10;99.90;;;;;;5060242;28;20021;-85
2023/04/21 01:15:13;;;;;;;46.13;28.23;;;5.10;99.90;;;;;;5042977;28;20477;-84
2023/04/21 01:17:39;;;;;;;47.97;27.73;;;5.00;99.90;;;;;;5051129;28;20021;-84
2023/04/21 01:20:09;;;;;;;37.35;25.83;;;5.10;99.90;;;;;;5054346;28;20039;-84
2023/04/21 01:22:37;;;;;;;44.78;26.35;;;5.00;99.90;;;;;;5052764;28;20033;-84
2023/04/21 01:25:04;;;;;;;46.08;28.90;;;5.10;99.90;;;;;;5058614;28;20422;-85
2023/04/21 01:27:33;;;;;;;42.10;26.55;;;5.00;99.90;;;;;;5051013;28;20437;-85
2023/04/21 01:29:58;;;;;;;48.65;27.67;;;5.00;99.90;;;;;;5045873;28;20025;-84
2023/04/21 01:32:27;;;;;;;43.63;26.80;;;5.00;99.90;;;;;;5055125;28;20032;-85
2023/04/21 01:34:54;;;;;;;46.15;26.60;;;5.00;99.90;;;;;;5049730;28;20424;-84
2023/04/21 01:37:23;;;;;;;52.35;27.55;;;5.00;99.90;;;;;;5044947;28;20059;-85
2023/04/21 01:39:56;;;;;;;45.20;28.02;;;5.10;99.90;;;;;;5050308;28;20127;-84
2023/04/21 01:42:24;;;;;;;35.42;23.55;;;5.00;99.90;;;;;;5047219;28;20021;-85
2023/04/21 01:44:53;;;;;;;42.17;26.95;;;5.00;99.90;;;;;;5046456;28;20021;-85
2023/04/21 01:47:20;;;;;;;45.70;24.42;;;5.00;99.90;;;;;;5054170;28;20017;-84
2023/04/21 01:49:49;;;;;;;37.97;23.77;;;5.00;99.90;;;;;;5056711;28;20393;-85
2023/04/21 01:52:15;;;;;;;39.85;22.95;;;5.00;99.90;;;;;;5053140;28;20500;-86
2023/04/21 01:54:43;;;;;;;38.35;22.25;;;4.90;99.90;;;;;;5050116;28;20278;-85
2023/04/21 01:57:09;;;;;;;33.00;20.02;;;4.90;99.90;;;;;;5048320;28;20036;-84
2023/04/21 01:59:35;;;;;;;36.67;20.45;;;4.90;99.90;;;;;;5046603;28;20041;-84
2023/04/21 02:02:00;;;;;;;41.28;22.08;;;4.90;99.90;;;;;;5044933;28;20120;-84
2023/04/21 02:04:26;;;;;;;33.40;21.95;;;4.90;99.90;;;;;;5047348;28;20432;-84
2023/04/21 02:06:51;;;;;;;41.60;21.98;;;4.90;99.90;;;;;;5053037;28;20052;-84
2023/04/21 02:09:17;;;;;;;34.28;20.67;;;4.90;99.90;;;;;;5045747;28;20389;-84
2023/04/21 02:11:43;;;;;;;43.53;24.05;;;4.90;99.90;;;;;;5046892;28;20025;-84
2023/04/21 02:14:08;;;;;;;30.92;21.30;;;4.90;99.90;;;;;;5052414;28;20056;-84
2023/04/21 02:16:34;;;;;;;33.97;20.58;;;4.90;99.90;;;;;;5050739;28;20136;-84
2023/04/21 02:18:59;;;;;;;31.48;20.50;;;4.90;99.90;;;;;;5052321;28;20037;-84
2023/04/21 02:21:26;;;;;;;37.08;23.52;;;4.80;99.90;;;;;;5046134;28;20112;-85
2023/04/21 02:23:52;;;;;;;34.80;21.50;;;4.80;99.90;;;;;;5045769;28;20036;-85
2023/04/21 02:26:18;;;;;;;43.88;24.60;;;4.80;99.90;;;;;;5041949;28;20028;-84
2023/04/21 02:28:44;;;;;;;39.67;23.00;;;4.80;99.90;;;;;;5046258;28;20025;-84
2023/04/21 02:31:09;;;;;;;35.03;22.13;;;4.80;99.90;;;;;;5058425;28;20024;-84
2023/04/21 02:33:35;;;;;;;33.85;21.25;;;4.80;99.90;;;;;;5052995;28;20028;-84
2023/04/21 02:36:01;;;;;;;41.88;25.10;;;4.80;99.90;;;;;;5051396;28;20267;-84
2023/04/21 02:38:27;;;;;;;39.70;23.42;;;4.80;99.90;;;;;;5057285;28;20087;-84
2023/04/21 02:40:55;;;;;;;37.83;23.58;;;4.80;99.90;;;;;;5034959;28;20056;-85
2023/04/21 02:43:20;;;;;;;42.95;23.38;;;4.70;99.90;;;;;;5049809;28;20066;-84
2023/04/21 02:45:46;;;;;;;40.22;23.25;;;4.70;99.90;;;;;;5049852;28;20477;-85
2023/04/21 02:48:12;;;;;;;38.40;23.05;;;4.70;99.90;;;;;;5053439;28;20723;-84
2023/04/21 02:50:38;;;;;;;41.95;22.60;;;4.70;99.90;;;;;;5050233;28;20032;-84
2023/04/21 02:53:04;;;;;;;39.38;23.35;;;4.70;99.90;;;;;;5044082;28;20128;-85
2023/04/21 02:55:30;;;;;;;41.33;26.33;;;4.70;99.90;;;;;;5050662;28;20472;-84
2023/04/21 02:57:55;;;;;;;40.88;23.77;;;4.70;99.90;;;;;;5049907;28;20052;-84
2023/04/21 03:00:21;;;;;;;45.30;25.40;;;4.60;99.90;;;;;;5049917;28;20706;-85
2023/04/21 03:02:52;;;;;;;46.97;23.05;;;4.70;99.90;;;;;;5045846;28;20065;-84
2023/04/21 03:05:17;;;;;;;43.67;24.83;;;4.70;99.90;;;;;;5044391;28;20029;-85
2023/04/21 03:07:44;;;;;;;37.92;22.80;;;4.70;99.90;;;;;;5045724;28;20029;-85
2023/04/21 03:10:10;;;;;;;45.15;25.42;;;4.60;99.90;;;;;;5053676;28;20371;-84
2023/04/21 03:12:36;;;;;;;45.65;26.02;;;4.60;99.90;;;;;;5052453;28;20029;-84
2023/04/21 03:15:02;;;;;;;36.63;21.63;;;4.60;99.90;;;;;;5046359;28;20076;-85
2023/04/21 03:17:27;;;;;;;39.88;22.58;;;4.60;99.90;;;;;;5053344;28;20025;-85
2023/04/21 03:19:53;;;;;;;39.00;21.98;;;4.50;99.90;;;;;;5046161;28;20486;-84
2023/04/21 03:22:18;;;;;;;42.38;23.90;;;4.50;99.90;;;;;;5055072;28;20032;-85
2023/04/21 03:24:44;;;;;;;41.30;22.70;;;4.50;99.90;;;;;;5042453;28;20032;-85
2023/04/21 03:27:10;;;;;;;43.10;22.38;;;4.50;99.90;;;;;;5040041;28;20029;-83
2023/04/21 03:29:36;;;;;;;31.23;20.58;;;4.50;99.90;;;;;;5038374;28;20029;-84
2023/04/21 03:32:02;;;;;;;36.80;22.30;;;4.50;99.90;;;;;;5041492;28;20121;-84
2023/04/21 03:34:28;;;;;;;38.80;22.98;;;4.50;99.90;;;;;;5043666;28;20127;-85
2023/04/21 03:36:54;;;;;;;35.53;22.50;;;4.50;99.90;;;;;;5049671;28;20045;-84
2023/04/21 03:39:20;;;;;;;43.72;23.17;;;4.50;99.90;;;;;;5041825;28;20041;-84
2023/04/21 03:41:46;;;;;;;42.47;23.73;;;4.40;99.90;;;;;;5042585;28;22003;-85
2023/04/21 03:44:11;;;;;;;35.03;21.42;;;4.40;99.90;;;;;;5037216;28;20595;-85
2023/04/21 03:46:37;;;;;;;41.63;22.92;;;4.40;99.90;;;;;;5040520;28;20033;-85
2023/04/21 03:49:02;;;;;;;48.08;24.13;;;4.40;99.90;;;;;;5045232;28;20036;-85
2023/04/21 03:51:28;;;;;;;45.40;21.80;;;4.50;99.90;;;;;;5051213;28;20115;-85
2023/04/21 03:53:54;;;;;;;41.55;22.80;;;4.40;99.90;;;;;;5041818;28;20533;-85
2023/04/21 03:56:19;;;;;;;46.17;23.05;;;4.40;99.90;;;;;;5043604;28;20021;-84
2023/04/21 03:58:45;;;;;;;43.38;23.85;;;4.40;99.90;;;;;;5041348;28;20036;-85
2023/04/21 04:01:10;;;;;;;47.13;24.67;;;4.50;99.90;;;;;;5053030;28;20048;-84
2023/04/21 04:03:37;;;;;;;47.90;25.55;;;4.50;99.90;;;;;;5035933;28;20029;-85
2023/04/21 04:06:03;;;;;;;47.13;23.08;;;4.60;99.90;;;;;;5047081;28;20389;-84
2023/04/21 04:08:30;;;;;;;44.38;23.63;;;4.60;99.90;;;;;;5038844;28;20053;-84
2023/04/21 04:10:55;;;;;;;48.55;24.17;;;4.60;99.90;;;;;;5040889;28;20029;-85
2023/04/21 04:13:21;;;;;;;51.58;24.15;;;4.60;99.90;;;;;;5057600;28;20505;-84
2023/04/21 04:15:47;;;;;;;38.28;23.40;;;4.60;99.90;;;;;;5050917;28;20032;-84
2023/04/21 04:18:12;;;;;;;46.92;26.55;;;4.60;99.90;;;;;;5046615;28;20153;-84
2023/04/21 04:20:38;;;;;;;38.17;22.27;;;4.60;99.90;;;;;;5048384;28;20044;-84
2023/04/21 04:23:04;;;;;;;53.92;23.65;;;4.50;99.90;;;;;;5048163;28;20029;-84
2023/04/21 04:25:29;;;;;;;51.75;25.55;;;4.50;99.90;;;;;;5048506;28;20033;-85
2023/04/21 04:27:56;;;;;;;46.15;22.67;;;4.50;99.90;;;;;;5038266;28;20021;-85
2023/04/21 04:30:22;;;;;;;42.00;21.50;;;4.50;99.90;;;;;;5044645;28;20025;-84
2023/04/21 04:32:48;;;;;;;37.60;21.33;;;4.50;99.90;;;;;;5051607;28;20040;-85
2023/04/21 04:35:18;;;;;;;40.42;22.55;;;4.50;99.90;;;;;;5048713;28;20172;-85
2023/04/21 04:37:44;;;;;;;36.70;21.95;;;4.60;99.90;;;;;;5051875;28;20037;-85
2023/04/21 04:40:16;;;;;;;38.97;21.55;;;4.60;99.90;;;;;;5044227;28;20044;-84
2023/04/21 04:42:42;;;;;;;33.58;20.23;;;4.60;99.90;;;;;;5051604;28;20477;-85
2023/04/21 04:45:08;;;;;;;34.95;20.33;;;4.60;99.90;;;;;;5045541;28;20381;-84
2023/04/21 04:47:37;;;;;;;34.60;20.40;;;4.50;99.90;;;;;;5048335;28;20029;-85
2023/04/21 04:50:04;;;;;;;43.30;21.70;;;4.60;99.90;;;;;;5043360;28;20033;-84
2023/04/21 04:52:29;;;;;;;37.88;22.05;;;4.60;99.90;;;;;;5050237;28;20028;-84
2023/04/21 04:54:55;;;;;;;41.08;22.85;;;4.60;99.90;;;;;;5047632;28;20392;-84
2023/04/21 04:57:22;;;;;;;42.00;23.27;;;4.70;99.90;;;;;;5048825;28;20025;-85
2023/04/21 04:59:47;;;;;;;37.25;20.70;;;4.70;99.90;;;;;;5051613;28;20049;-85
2023/04/21 05:02:16;;;;;;;37.42;19.95;;;4.70;99.90;;;;;;5045284;28;20055;-85
2023/04/21 05:04:42;;;;;;;47.70;25.92;;;4.70;99.90;;;;;;5044588;28;20021;-84
2023/04/21 05:07:07;;;;;;;45.75;21.17;;;4.80;99.90;;;;;;5047427;28;20024;-85
2023/04/21 05:09:33;;;;;;;36.05;20.95;;;4.90;99.90;;;;;;5038241;28;20029;-84
2023/04/21 05:12:00;;;;;;;29.77;20.13;;;4.90;99.90;;;;;;5060205;28;20385;-85
2023/04/21 05:14:26;;;;;;;30.92;19.65;;;4.90;99.90;;;;;;5054496;28;20028;-85
2023/04/21 05:16:51;;;;;;;38.88;22.33;;;4.90;99.90;;;;;;5049182;28;20105;-85
2023/04/21 05:19:17;;;;;;;42.15;21.77;;;5.00;99.90;;;;;;5049996;28;20386;-91
2023/04/21 05:21:45;;;;;;;36.70;21.13;;;5.10;99.90;;;;;;5040958;28;20024;-85
2023/04/21 05:24:11;;;;;;;38.20;21.38;;;5.10;99.90;;;;;;5042020;28;20529;-85
2023/04/21 05:26:37;;;;;;;43.17;22.35;;;5.20;99.90;;;;;;5042981;28;20112;-84
2023/04/21 05:29:02;;;;;;;43.13;23.73;;;5.30;99.90;;;;;;5038439;28;20420;-86
2023/04/21 05:31:28;;;;;;;39.05;21.25;;;5.30;99.90;;;;;;5028225;28;20033;-86
2023/04/21 05:33:53;;;;;;;41.22;23.88;;;5.40;99.90;;;;;;5040449;28;20581;-85
2023/04/21 05:36:19;;;;;;;39.33;23.50;;;5.40;99.90;;;;;;5045903;28;20045;-85
2023/04/21 05:38:45;;;;;;;49.08;27.70;;;5.50;99.90;;;;;;5049881;28;20029;-85
2023/04/21 05:41:12;;;;;;;43.70;26.30;;;5.50;99.90;;;;;;5049076;28;20025;-85
2023/04/21 05:43:38;;;;;;;41.35;25.25;;;5.60;99.90;;;;;;5047370;28;20025;-85
2023/04/21 05:46:09;;;;;;;41.45;24.85;;;5.70;99.90;;;;;;5038565;28;20028;-84
2023/04/21 05:48:35;;;;;;;41.30;23.45;;;5.90;99.90;;;;;;5039697;28;20033;-85
2023/04/21 05:51:11;;;;;;;61.25;26.92;;;6.00;99.90;;;;;;5041403;28;20566;-83
2023/04/21 05:53:39;;;;;;;48.58;27.80;;;6.10;99.90;;;;;;5040968;28;20550;-86
2023/04/21 05:56:05;;;;;;;41.90;24.48;;;6.20;99.90;;;;;;5040716;28;20029;-85
2023/04/21 05:58:33;;;;;;;40.42;24.15;;;6.30;99.90;;;;;;5048811;28;20434;-86
2023/04/21 06:00:58;;;;;;;49.22;27.00;;;6.30;99.90;;;;;;5052877;28;20036;-85
2023/04/21 06:03:24;;;;;;;39.85;23.95;;;6.40;99.90;;;;;;5044307;28;20029;-85
2023/04/21 06:05:59;;;;;;;51.10;27.23;;;6.50;99.90;;;;;;5049608;28;20033;-85
2023/04/21 06:08:25;;;;;;;50.00;26.05;;;6.60;99.90;;;;;;5046008;28;20029;-86
2023/04/21 06:10:51;;;;;;;55.63;27.70;;;6.70;99.90;;;;;;5052614;28;20056;-85
2023/04/21 06:13:17;;;;;;;48.25;26.17;;;6.80;99.90;;;;;;5043796;28;20032;-86
2023/04/21 06:15:43;;;;;;;63.75;28.27;;;6.80;99.90;;;;;;5036937;28;20029;-85
2023/04/21 06:18:08;;;;;;;42.75;25.90;;;6.90;99.90;;;;;;5040692;28;20036;-86
2023/04/21 06:20:34;;;;;;;53.88;27.20;;;6.90;99.90;;;;;;5045537;28;20039;-85
2023/04/21 06:22:59;;;;;;;54.55;27.27;;;7.00;99.90;;;;;;5051621;28;20032;-85
2023/04/21 06:25:25;;;;;;;48.78;28.13;;;7.10;99.90;;;;;;5044072;28;20025;-85
2023/04/21 06:27:51;;;;;;;56.78;29.77;;;7.10;99.90;;;;;;5044207;28;20037;-85
2023/04/21 06:30:20;;;;;;;42.55;27.45;;;7.20;99.90;;;;;;5040290;28;20369;-86
2023/04/21 06:32:46;;;;;;;41.88;27.10;;;7.20;99.90;;;;;;5035141;28;20086;-86
2023/04/21 06:35:13;;;;;;;50.60;27.90;;;7.20;99.90;;;;;;5047538;28;20005;-85
2023/04/21 06:37:42;;;;;;;40.08;25.45;;;7.30;99.90;;;;;;5039789;28;20082;-85
2023/04/21 06:40:11;;;;;;;46.38;26.20;;;7.30;99.90;;;;;;5054850;28;20044;-85
2023/04/21 06:42:36;;;;;;;57.97;27.77;;;7.40;99.90;;;;;;5033342;28;20026;-85
2023/04/21 06:45:02;;;;;;;42.78;25.98;;;7.40;99.90;;;;;;5041427;28;20492;-85
2023/04/21 06:47:28;;;;;;;47.47;23.75;;;7.40;99.90;;;;;;5040539;28;20487;-85
2023/04/21 06:49:53;;;;;;;49.17;25.83;;;7.50;99.90;;;;;;5042472;28;20035;-85
2023/04/21 06:52:19;;;;;;;54.75;26.00;;;7.60;99.90;;;;;;5044443;28;20393;-86
2023/04/21 06:54:44;;;;;;;44.22;24.48;;;7.60;99.90;;;;;;5055772;28;20028;-85
2023/04/21 06:57:10;;;;;;;56.35;25.67;;;7.70;99.90;;;;;;5044714;28;20059;-85
2023/04/21 06:59:37;;;;;;;47.80;24.13;;;7.70;99.90;;;;;;5050509;28;20047;-85
2023/04/21 07:02:02;;;;;;;54.13;26.52;;;7.80;99.90;;;;;;5047876;28;20021;-85
2023/04/21 07:04:28;;;;;;;41.83;23.67;;;7.90;99.90;;;;;;5037914;28;20359;-85
2023/04/21 07:06:55;;;;;;;49.38;24.58;;;8.00;99.90;;;;;;5045423;28;20059;-84
2023/04/21 07:09:21;;;;;;;54.25;25.35;;;8.00;99.90;;;;;;5040266;28;20082;-85
2023/04/21 07:11:49;;;;;;;50.33;26.20;;;8.00;99.90;;;;;;5049868;28;20075;-86
2023/04/21 07:14:15;;;;;;;71.32;27.98;;;8.20;99.90;;;;;;5042452;28;20033;-85
2023/04/21 07:16:41;;;;;;;47.47;25.95;;;8.20;99.90;;;;;;5043539;28;20525;-85
2023/04/21 07:19:06;;;;;;;59.83;25.75;;;8.20;99.90;;;;;;5049227;28;20036;-85
2023/04/21 07:21:35;;;;;;;57.25;25.40;;;8.30;99.90;;;;;;5036834;28;20036;-85
2023/04/21 07:24:01;;;;;;;43.33;24.58;;;8.40;99.90;;;;;;5039181;28;20258;-84
2023/04/21 07:26:27;;;;;;;55.47;25.98;;;8.50;99.90;;;;;;5036550;28;20029;-84
2023/04/21 07:28:57;;;;;;;54.67;26.33;;;8.70;99.90;;;;;;5045297;28;20025;-85
2023/04/21 07:31:25;;;;;;;60.17;25.65;;;8.80;99.90;;;;;;5044550;28;20214;-85
2023/04/21 07:33:51;;;;;;;50.38;21.92;;;8.90;99.90;;;;;;5034359;28;20785;-85
2023/04/21 07:36:17;;;;;;;43.08;24.02;;;9.10;99.90;;;;;;5040701;28;20032;-85
2023/04/21 07:38:43;;;;;;;43.20;21.77;;;9.10;99.90;;;;;;5049165;28;20029;-84
2023/04/21 07:41:12;;;;;;;50.17;22.45;;;9.20;99.90;;;;;;5052653;28;20028;-85
2023/04/21 07:43:38;;;;;;;40.70;23.08;;;9.30;99.90;;;;;;5046961;28;20090;-84
2023/04/21 07:46:04;;;;;;;49.80;20.08;;;9.40;99.90;;;;;;5042313;28;20477;-84
2023/04/21 07:48:30;;;;;;;47.83;21.55;;;9.40;99.90;;;;;;5052598;28;20037;-85
2023/04/21 07:50:57;;;;;;;53.08;21.50;;;9.50;99.90;;;;;;5041522;28;20029;-84
2023/04/21 07:53:23;;;;;;;51.50;20.58;;;9.60;99.90;;;;;;5048877;28;20483;-85
2023/04/21 07:55:48;;;;;;;49.80;20.58;;;9.70;99.90;;;;;;5047661;28;20058;-84
2023/04/21 07:58:15;;;;;;;47.10;20.13;;;9.80;99.90;;;;;;5061922;28;20033;-83
2023/04/21 08:00:42;;;;;;;46.85;20.63;;;9.90;99.90;;;;;;5058642;28;20358;-84
2023/04/21 08:03:08;;;;;;;38.33;19.13;;;9.90;99.90;;;;;;5035704;28;20071;-85
2023/04/21 08:05:34;;;;;;;42.70;17.75;;;10.00;99.90;;;;;;5053849;28;21006;-84
2023/04/21 08:07:59;;;;;;;40.30;18.20;;;10.00;99.90;;;;;;5052145;28;20025;-85
2023/04/21 08:10:25;;;;;;;37.35;18.55;;;10.20;99.90;;;;;;5042536;28;20039;-84
2023/04/21 08:12:51;;;;;;;42.55;16.55;;;10.30;99.90;;;;;;5048670;28;20029;-83
2023/04/21 08:15:17;;;;;;;39.70;17.73;;;10.30;99.90;;;;;;5058038;28;20077;-85
2023/04/21 08:17:43;;;;;;;40.20;17.35;;;10.40;99.90;;;;;;5055260;28;20356;-84
2023/04/21 08:20:09;;;;;;;48.38;17.42;;;10.50;99.90;;;;;;5045129;28;20433;-84
2023/04/21 08:22:35;;;;;;;37.58;15.98;;;10.60;99.90;;;;;;5063720;28;20544;-84
2023/04/21 08:25:02;;;;;;;53.63;18.52;;;10.70;99.90;;;;;;5051854;28;20048;-85
2023/04/21 08:27:27;;;;;;;37.95;17.00;;;10.80;99.90;;;;;;5047412;28;20482;-83
2023/04/21 08:29:53;;;;;;;35.45;14.20;;;10.90;99.90;;;;;;5052864;28;20056;-83
2023/04/21 08:32:22;;;;;;;37.25;14.45;;;11.00;99.90;;;;;;5050547;28;20029;-85
2023/04/21 08:34:50;;;;;;;37.90;14.07;;;11.10;99.90;;;;;;5055506;28;20039;-85
2023/04/21 08:37:17;;;;;;;40.83;13.45;;;11.20;99.90;;;;;;5054840;28;20048;-85
2023/04/21 08:39:43;;;;;;;42.22;13.80;;;11.40;99.90;;;;;;5044870;28;20037;-84
2023/04/21 08:42:09;;;;;;;31.58;11.98;;;11.50;99.90;;;;;;5048444;28;20528;-83
2023/04/21 08:44:34;;;;;;;37.90;12.55;;;11.70;99.90;;;;;;5042182;28;20029;-83
2023/04/21 08:47:02;;;;;;;45.20;13.35;;;11.70;99.90;;;;;;5043631;28;20017;-84
2023/04/21 08:49:30;;;;;;;35.33;13.48;;;11.70;99.90;;;;;;5039297;28;20498;-83
2023/04/21 08:51:55;;;;;;;34.05;13.75;;;11.80;99.90;;;;;;5040354;28;20112;-84
2023/04/21 08:54:21;;;;;;;39.40;13.02;;;11.90;99.90;;;;;;5054125;28;20170;-83
2023/04/21 08:56:48;;;;;;;30.48;11.90;;;11.90;99.90;;;;;;5041481;28;20477;-84
2023/04/21 08:59:17;;;;;;;48.13;14.30;;;12.10;99.90;;;;;;5038539;28;20043;-86
2023/04/21 09:02:12;;;;;;;31.20;11.35;;;12.20;99.90;;;;;;5049670;28;20116;-84
2023/04/21 09:04:39;;;;;;;40.28;12.50;;;12.30;99.90;;;;;;5051524;28;20025;-83
2023/04/21 09:07:05;;;;;;;28.50;10.10;;;12.40;99.90;;;;;;5046653;28;20027;-84
2023/04/21 09:09:31;;;;;;;41.42;10.68;;;12.50;99.90;;;;;;5047286;28;20024;-83
2023/04/21 09:11:58;;;;;;;42.92;12.70;;;12.60;99.90;;;;;;5049584;28;20032;-84
2023/04/21 09:14:33;;;;;;;36.08;12.43;;;12.70;99.90;;;;;;5045978;28;20651;-83
2023/04/21 09:17:00;;;;;;;;;;;12.70;99.90;;;;;;5043257;28;20371;-85
2023/04/21 09:19:27;;;;;;;36.05;10.80;;;12.90;99.90;;;;;;5053035;28;19916;-85
2023/04/21 09:21:53;;;;;;;32.10;10.68;;;13.00;99.90;;;;;;5048613;28;20032;-85
2023/04/21 09:24:19;;;;;;;32.55;12.27;;;13.00;99.90;;;;;;5048160;28;20021;-84
2023/04/21 09:26:52;;;;;;;33.83;10.75;;;13.10;99.90;;;;;;5035491;28;20029;-85
2023/04/21 09:29:24;;;;;;;37.75;11.00;;;13.20;99.90;;;;;;5033943;28;20029;-84
2023/04/21 09:31:51;;;;;;;27.52;10.15;;;13.30;99.90;;;;;;5039890;28;20052;-84
2023/04/21 09:34:23;;;;;;;27.00;10.38;;;13.40;99.90;;;;;;5044547;28;20573;-83
2023/04/21 09:37:01;;;;;;;19.50;9.32;;;13.50;99.90;;;;;;5046316;28;20053;-85
2023/04/21 09:39:32;;;;;;;38.17;12.48;;;13.50;99.90;;;;;;5041305;28;20120;-84
2023/04/21 09:41:58;;;;;;;34.53;10.95;;;13.60;99.90;;;;;;5047676;28;20036;-85
2023/04/21 09:44:27;;;;;;;22.45;9.68;;;13.60;99.90;;;;;;5045379;28;20025;-85
2023/04/21 09:47:03;;;;;;;32.83;10.80;;;13.60;99.90;;;;;;5036901;28;20402;-84
2023/04/21 09:49:35;;;;;;;33.97;10.10;;;13.70;99.90;;;;;;5052924;28;20024;-84
2023/04/21 09:52:01;;;;;;;33.53;10.32;;;13.90;99.90;;;;;;5048219;28;20103;-85
2023/04/21 09:54:32;;;;;;;24.92;10.05;;;13.90;99.90;;;;;;5051543;28;20267;-85
2023/04/21 09:57:03;;;;;;;26.88;7.88;;;14.00;99.90;;;;;;5049919;28;20029;-86
2023/04/21 09:59:36;;;;;;;29.95;9.73;;;14.00;99.90;;;;;;5045680;28;20055;-85
2023/04/21 10:02:06;;;;;;;20.08;9.38;;;14.00;99.90;;;;;;5048252;28;20016;-84
2023/04/21 10:04:33;;;;;;;31.17;7.72;;;14.10;99.90;;;;;;5042795;28;20027;-84
2023/04/21 10:07:02;;;;;;;24.17;7.55;;;14.20;99.90;;;;;;5037752;28;20466;-86
2023/04/21 10:09:37;;;;;;;19.40;7.57;;;14.30;99.90;;;;;;5056762;28;20090;-83
2023/04/21 10:12:04;;;;;;;21.45;7.63;;;14.40;99.90;;;;;;5046630;28;20539;-85
2023/04/21 10:14:29;;;;;;;23.88;8.07;;;14.50;99.90;;;;;;5047442;28;20032;-82
2023/04/21 10:17:09;;;;;;;15.43;8.05;;;14.70;99.90;;;;;;5055509;28;20389;-83
2023/04/21 10:19:40;;;;;;;23.50;8.52;;;14.70;99.90;;;;;;5047507;28;20037;-83
2023/04/21 10:22:10;;;;;;;27.58;10.05;;;14.90;99.90;;;;;;5047577;28;20534;-85
2023/04/21 10:24:38;;;;;;;26.05;6.70;;;14.90;99.90;;;;;;5049443;28;20143;-84
2023/04/21 10:27:03;;;;;;;24.75;7.78;;;15.00;99.90;;;;;;5039962;28;20032;-84
2023/04/21 10:29:32;;;;;;;23.52;7.20;;;15.00;99.90;;;;;;5048527;28;20080;-83
2023/04/21 10:31:58;;;;;;;20.15;6.70;;;15.00;99.90;;;;;;5039765;28;20079;-87
2023/04/21 10:34:24;;;;;;;28.00;6.57;;;15.10;99.90;;;;;;5036204;28;20524;-84
2023/04/21 10:36:56;;;;;;;25.30;6.72;;;15.20;99.90;;;;;;5040487;28;20045;-86
2023/04/21 10:39:29;;;;;;;20.58;7.47;;;15.30;99.90;;;;;;5040470;28;20051;-83
2023/04/21 10:41:57;;;;;;;22.15;6.93;;;15.20;99.90;;;;;;5050556;28;20040;-81
2023/04/21 10:44:23;;;;;;;17.60;6.28;;;15.30;99.90;;;;;;5043652;28;20035;-85
2023/04/21 10:46:50;;;;;;;30.95;6.93;;;15.30;99.90;;;;;;5035382;28;20315;-84
2023/04/21 10:49:23;;;;;;;22.98;5.45;;;15.40;99.90;;;;;;5046247;28;20025;-86
2023/04/21 10:54:44;;;;;;;16.65;5.53;;;15.50;99.90;;;;;;5040792;28;20029;-85
2023/04/21 10:57:18;;;;;;;19.67;6.05;;;15.50;99.90;;;;;;5049832;28;20035;-87
2023/04/21 10:59:45;;;;;;;19.02;5.85;;;15.60;99.90;;;;;;5060148;28;20041;-83
2023/04/21 11:02:12;;;;;;;16.13;5.38;;;15.70;99.90;;;;;;5046573;28;20055;-85
2023/04/21 11:04:46;;;;;;;18.45;4.90;;;15.80;99.90;;;;;;5048649;28;20025;-84
2023/04/21 11:07:18;;;;;;;26.02;4.85;;;15.90;99.90;;;;;;5051464;28;20036;-90
2023/04/21 11:09:45;;;;;;;11.35;5.03;;;15.80;99.90;;;;;;5041887;28;20146;-83
2023/04/21 11:12:16;;;;;;;29.30;5.57;;;15.90;99.90;;;;;;5043471;28;20021;-81
2023/04/21 11:14:44;;;;;;;24.38;6.63;;;16.00;99.90;;;;;;5043010;28;20029;-87
2023/04/21 11:17:11;;;;;;;19.75;4.93;;;16.10;99.90;;;;;;5056357;28;20548;-87
2023/04/21 11:19:37;;;;;;;19.42;4.72;;;16.20;99.90;;;;;;5036604;28;20036;-85
2023/04/21 11:22:04;;;;;;;13.05;4.85;;;16.30;99.90;;;;;;5041234;28;20414;-87
2023/04/21 11:24:30;;;;;;;20.58;4.88;;;16.30;99.90;;;;;;5041267;28;20041;-86
2023/04/21 11:26:59;;;;;;;16.40;4.78;;;16.40;99.90;;;;;;5041770;28;20048;-83
2023/04/21 11:29:25;;;;;;;22.55;4.97;;;16.40;99.90;;;;;;5035376;28;20120;-83
2023/04/21 11:31:52;;;;;;;16.90;5.00;;;16.50;99.90;;;;;;5042575;28;20192;-88
2023/04/21 11:34:19;;;;;;;14.55;5.18;;;16.50;99.90;;;;;;5043291;28;20131;-82
2023/04/21 11:36:46;;;;;;;17.70;4.72;;;16.60;99.90;;;;;;5042130;28;20063;-86
2023/04/21 11:39:15;;;;;;;10.43;4.30;;;16.60;99.90;;;;;;5039953;28;20044;-87
2023/04/21 11:41:47;;;;;;;20.98;5.03;;;16.70;99.90;;;;;;5043783;28;20033;-83
2023/04/21 11:44:13;;;;;;;36.13;5.60;;;16.70;99.90;;;;;;5039379;28;20385;-89
2023/04/21 11:46:45;;;;;;;15.27;3.80;;;16.70;99.90;;;;;;5044907;28;20028;-84
2023/04/21 11:49:13;;;;;;;16.25;4.10;;;16.80;99.90;;;;;;5041749;28;20021;-82
2023/04/21 11:51:41;;;;;;;18.35;4.25;;;16.80;98.60;;;;;;5038278;28;20064;-87
2023/04/21 11:54:12;;;;;;;15.23;4.03;;;16.90;99.90;;;;;;5039141;28;20028;-81
2023/04/21 11:56:40;;;;;;;18.00;3.85;;;16.90;97.60;;;;;;5048102;28;20093;-84
2023/04/21 11:59:15;;;;;;;13.73;3.97;;;16.90;96.40;;;;;;5047245;28;20039;-84
2023/04/21 12:01:47;;;;;;;17.33;3.58;;;16.90;99.90;;;;;;5037625;28;20052;-85
2023/04/21 12:04:16;;;;;;;20.23;5.18;;;16.90;99.90;;;;;;5042713;28;20112;-88
2023/04/21 12:06:44;;;;;;;16.55;4.63;;;17.00;99.90;;;;;;5042643;28;20489;-84
2023/04/21 12:09:16;;;;;;;15.88;4.90;;;17.10;99.90;;;;;;5039822;28;20032;-83
2023/04/21 12:11:47;;;;;;;21.50;4.30;;;17.20;97.20;;;;;;5035866;28;20017;-91
2023/04/21 12:14:15;;;;;;;13.85;3.50;;;17.30;92.90;;;;;;5036561;28;20040;-88
2023/04/21 12:16:41;;;;;;;17.10;4.13;;;17.30;92.60;;;;;;5045355;28;20105;-81
2023/04/21 12:19:09;;;;;;;27.67;5.78;;;17.40;93.50;;;;;;5037826;28;20444;-91
2023/04/21 12:21:40;;;;;;;15.68;4.03;;;17.40;92.60;;;;;;5042706;28;20044;-83
2023/04/21 12:24:05;;;;;;;12.05;3.75;;;17.40;93.80;;;;;;5048943;28;20524;-82
2023/04/21 12:26:31;;;;;;;13.38;3.88;;;17.40;90.80;;;;;;5040033;28;20054;-82
2023/04/21 12:28:59;;;;;;;20.42;4.78;;;17.40;93.50;;;;;;5047403;28;20077;-83
2023/04/21 12:31:24;;;;;;;9.73;4.30;;;17.50;97.20;;;;;;5050377;28;20028;-84
2023/04/21 12:33:50;;;;;;;8.95;3.17;;;17.50;97.60;;;;;;5047801;28;20135;-82
2023/04/21 12:36:16;;;;;;;10.63;3.90;;;17.60;95.00;;;;;;5049018;28;20293;-85
2023/04/21 12:38:43;;;;;;;7.70;3.67;;;17.70;93.60;;;;;;5043395;28;20053;-85